Time;durP1;ratioP1;P1;durP2;ratioP2;P2;SDS_P1;SDS_P2;PMS_P1;PMS_P2;Temp;Humidity;BMP_temperature;BMP_pressure;BME280_temperature;BME280_humidity;BME280_pressure;Samples;Min_cycle;Max_cycle;Signal;HPM_P1;HPM_P2
2022/12/04 00:02:25;;;;;;;52.08;42.70;;;;;;;-0.78;100.00;95052.22;5075929;28;20485;-69
2022/12/04 00:04:50;;;;;;;47.97;42.08;;;;;;;-0.79;100.00;95056.59;5079777;28;20092;-68
2022/12/04 00:07:16;;;;;;;47.13;41.33;;;;;;;-0.75;100.00;95059.84;5080977;28;20039;-68
2022/12/04 00:09:41;;;;;;;51.60;43.45;;;;;;;-0.76;100.00;95046.06;5082591;28;20023;-72
2022/12/04 00:12:06;;;;;;;48.13;42.33;;;;;;;-0.73;100.00;95058.00;5076959;28;20397;-58
2022/12/04 00:14:32;;;;;;;45.53;40.58;;;;;;;-0.69;100.00;95050.88;5076164;28;20032;-63
2022/12/04 00:16:57;;;;;;;50.65;42.17;;;;;;;-0.68;100.00;95058.56;5072008;28;20445;-63
2022/12/04 00:19:23;;;;;;;45.33;39.20;;;;;;;-0.65;100.00;95055.78;5076843;28;20020;-62
2022/12/04 00:21:49;;;;;;;48.55;40.20;;;;;;;-0.63;100.00;95055.72;5077847;28;20017;-63
2022/12/04 00:24:15;;;;;;;45.92;38.42;;;;;;;-0.61;100.00;95049.50;5073996;28;20028;-63
2022/12/04 00:26:40;;;;;;;43.17;37.97;;;;;;;-0.59;100.00;95052.03;5082754;28;20077;-63
2022/12/04 00:29:06;;;;;;;58.22;50.15;;;;;;;-0.59;100.00;95052.84;5079566;28;20028;-63
2022/12/04 00:31:31;;;;;;;52.25;44.80;;;;;;;-0.59;100.00;95055.44;5087638;28;20059;-72
2022/12/04 00:33:57;;;;;;;53.35;46.92;;;;;;;-0.49;100.00;95047.16;5054511;28;20044;-59
2022/12/04 00:36:25;;;;;;;61.47;49.03;;;;;;;-0.46;100.00;95044.38;5082581;28;20056;-59
2022/12/04 00:38:50;;;;;;;52.83;46.25;;;;;;;-0.47;100.00;95045.28;5085953;28;20024;-58
2022/12/04 00:41:18;;;;;;;51.88;39.97;;;;;;;-0.45;100.00;95046.03;5082229;28;20028;-59
2022/12/04 00:43:44;;;;;;;46.05;40.30;;;;;;;-0.41;100.00;95036.34;5075932;28;20024;-58
2022/12/04 00:46:10;;;;;;;46.92;40.58;;;;;;;-0.45;100.00;95041.69;5083940;28;20024;-58
2022/12/04 00:48:36;;;;;;;42.22;37.20;;;;;;;-0.41;100.00;95044.13;5072522;28;20031;-56
2022/12/04 00:51:06;;;;;;;44.35;37.95;;;;;;;-0.41;100.00;95042.34;5077990;28;20047;-60
2022/12/04 00:53:32;;;;;;;46.53;38.10;;;;;;;-0.31;100.00;95040.88;5076137;28;20020;-60
2022/12/04 00:55:57;;;;;;;47.20;38.33;;;;;;;-0.37;100.00;95038.66;5076170;28;20024;-60
2022/12/04 00:58:23;;;;;;;43.65;37.88;;;;;;;-0.39;100.00;95047.44;5083100;28;20020;-61
2022/12/04 01:00:48;;;;;;;46.15;38.17;;;;;;;-0.38;100.00;95046.50;5078953;28;20043;-60
2022/12/04 01:03:13;;;;;;;44.10;38.03;;;;;;;-0.21;100.00;95041.16;5080781;28;20388;-60
2022/12/04 01:05:41;;;;;;;44.72;37.00;;;;;;;-0.18;100.00;95038.41;5079828;28;20090;-60
2022/12/04 01:08:07;;;;;;;42.78;37.28;;;;;;;-0.12;100.00;95039.75;5074123;28;20052;-59
2022/12/04 01:10:33;;;;;;;43.85;38.13;;;;;;;-0.05;100.00;95027.28;5083337;28;20390;-56
2022/12/04 01:12:58;;;;;;;42.40;36.03;;;;;;;-0.09;100.00;95029.25;5072937;28;20028;-56
2022/12/04 01:15:24;;;;;;;42.28;35.03;;;;;;;-0.12;100.00;95033.75;5075725;28;20051;-56
2022/12/04 01:17:49;;;;;;;41.22;36.85;;;;;;;-0.17;100.00;95032.28;5085418;28;20043;-56
2022/12/04 01:20:16;;;;;;;44.75;36.90;;;;;;;-0.16;100.00;95033.09;5082004;28;20350;-54
2022/12/04 01:22:41;;;;;;;41.08;34.75;;;;;;;-0.08;100.00;95046.44;5082176;28;20036;-56
2022/12/04 01:25:07;;;;;;;40.80;36.08;;;;;;;-0.12;100.00;95049.28;5086857;28;20077;-56
2022/12/04 01:27:32;;;;;;;46.38;37.08;;;;;;;-0.17;100.00;95060.75;5085497;28;20096;-60
2022/12/04 01:29:58;;;;;;;45.95;36.40;;;;;;;-0.18;100.00;95061.69;5086621;28;20069;-56
2022/12/04 01:32:23;;;;;;;47.90;36.97;;;;;;;-0.15;100.00;95068.41;5088745;28;20016;-56
2022/12/04 01:34:49;;;;;;;40.88;35.60;;;;;;;-0.13;100.00;95056.22;5081019;28;20127;-55
2022/12/04 01:37:14;;;;;;;47.35;36.80;;;;;;;-0.12;100.00;95057.88;5088629;28;20031;-57
2022/12/04 01:39:39;;;;;;;41.60;35.17;;;;;;;-0.10;100.00;95050.88;5087973;28;20519;-56
2022/12/04 01:42:05;;;;;;;43.47;37.53;;;;;;;-0.09;100.00;95052.53;5078174;28;20497;-56
2022/12/04 01:44:31;;;;;;;46.40;37.55;;;;;;;-0.11;100.00;95053.53;5085363;28;20031;-56
2022/12/04 01:46:59;;;;;;;44.22;36.75;;;;;;;-0.17;100.00;95049.56;5079172;28;20024;-58
2022/12/04 01:49:43;;;;;;;40.53;34.10;;;;;;;-0.17;100.00;95057.31;5090367;28;20016;-73
2022/12/04 01:52:21;;;;;;;43.28;34.97;;;;;;;-0.20;100.00;95048.00;5086266;28;20107;-73
2022/12/04 01:54:53;;;;;;;44.80;36.38;;;;;;;-0.21;100.00;95050.69;5075086;28;21000;-73
2022/12/04 01:57:21;;;;;;;41.42;36.90;;;;;;;-0.25;100.00;95059.56;5086286;28;20021;-73
2022/12/04 01:59:53;;;;;;;41.42;36.92;;;;;;;-0.26;100.00;95057.88;5090077;28;20095;-73
2022/12/04 02:02:24;;;;;;;42.88;36.20;;;;;;;-0.26;100.00;95060.47;5083205;28;20032;-73
2022/12/04 02:04:50;;;;;;;41.38;36.60;;;;;;;-0.30;100.00;95055.47;5090075;28;20030;-68
2022/12/04 02:07:15;;;;;;;41.60;36.25;;;;;;;-0.36;100.00;95055.81;5088040;28;20110;-59
2022/12/04 02:09:41;;;;;;;41.05;36.05;;;;;;;-0.42;100.00;95048.44;5085869;28;20052;-60
2022/12/04 02:12:11;;;;;;;42.95;35.20;;;;;;;-0.42;100.00;95056.19;5079487;28;20032;-60
2022/12/04 02:14:37;;;;;;;40.47;36.13;;;;;;;-0.43;100.00;95046.78;5088157;28;20107;-60
2022/12/04 02:17:17;;;;;;;40.35;36.05;;;;;;;-0.41;100.00;95049.28;5080315;28;20100;-61
2022/12/04 02:19:58;;;;;;;41.85;34.97;;;;;;;-0.45;100.00;95052.03;5085576;28;20504;-60
2022/12/04 02:22:52;;;;;;;39.42;34.83;;;;;;;-0.48;100.00;95047.03;5087779;28;20031;-60
2022/12/04 02:25:30;;;;;;;38.42;32.88;;;;;;;-0.51;100.00;95043.81;5084157;28;20020;-68
2022/12/04 02:28:13;;;;;;;36.58;31.75;;;;;;;-0.55;100.00;95042.31;5085916;28;20025;-60
2022/12/04 02:30:41;;;;;;;40.08;34.85;;;;;;;-0.56;100.00;95045.81;5077284;28;20012;-60
2022/12/04 02:33:21;;;;;;;42.60;35.67;;;;;;;-0.57;100.00;95039.84;5086877;28;20044;-59
2022/12/04 02:36:12;;;;;;;52.65;38.00;;;;;;;-0.55;100.00;95047.47;5082964;28;20048;-60
2022/12/04 02:38:54;;;;;;;47.95;37.15;;;;;;;-0.52;100.00;95047.31;5081297;28;20069;-59
2022/12/04 02:41:24;;;;;;;44.58;36.78;;;;;;;-0.47;100.00;95040.13;5087649;28;20110;-59
2022/12/04 02:44:02;;;;;;;45.05;36.55;;;;;;;-0.47;100.00;95035.78;5084102;28;20406;-60
2022/12/04 02:46:35;;;;;;;43.65;36.85;;;;;;;-0.45;100.00;95039.09;5085034;28;20102;-69
2022/12/04 02:49:05;;;;;;;44.60;35.50;;;;;;;-0.43;100.00;95033.84;5085598;28;20028;-63
2022/12/04 02:51:34;;;;;;;44.35;35.75;;;;;;;-0.49;100.00;95029.84;5077135;28;20089;-63
2022/12/04 02:54:08;;;;;;;43.00;36.95;;;;;;;-0.52;100.00;95036.97;5083674;28;20028;-63
2022/12/04 02:56:38;;;;;;;39.85;34.83;;;;;;;-0.53;100.00;95037.91;5088004;28;20025;-63
2022/12/04 02:59:10;;;;;;;41.28;33.40;;;;;;;-0.52;100.00;95039.56;5081344;28;20020;-63
2022/12/04 03:01:41;;;;;;;38.67;32.88;;;;;;;-0.50;100.00;95043.72;5082057;28;20016;-64
2022/12/04 03:04:14;;;;;;;41.35;34.05;;;;;;;-0.49;100.00;95047.97;5066518;28;20490;-59
2022/12/04 03:06:43;;;;;;;44.30;34.13;;;;;;;-0.48;100.00;95048.81;5084289;28;20043;-69
2022/12/04 03:09:13;;;;;;;39.78;33.85;;;;;;;-0.47;100.00;95040.94;5082242;28;20032;-69
2022/12/04 03:11:43;;;;;;;41.60;35.17;;;;;;;-0.44;100.00;95035.63;5082268;28;20039;-69
2022/12/04 03:14:16;;;;;;;43.25;34.33;;;;;;;-0.39;100.00;95043.06;5076952;28;20053;-70
2022/12/04 03:16:42;;;;;;;38.35;33.15;;;;;;;-0.38;100.00;95042.16;5075105;28;20025;-69
2022/12/04 03:19:20;;;;;;;39.47;32.88;;;;;;;-0.36;100.00;95037.72;5083683;28;20024;-69
2022/12/04 03:21:51;;;;;;;44.38;34.35;;;;;;;-0.33;100.00;95036.72;5074487;28;20508;-65
2022/12/04 03:24:21;;;;;;;38.13;33.20;;;;;;;-0.35;100.00;95048.91;5083192;28;20016;-73
2022/12/04 03:26:59;;;;;;;37.17;32.13;;;;;;;-0.37;100.00;95046.41;5084041;28;20111;-59
2022/12/04 03:29:34;;;;;;;37.53;31.30;;;;;;;-0.35;100.00;95052.31;5084184;28;20051;-59
2022/12/04 03:32:09;;;;;;;42.17;34.38;;;;;;;-0.34;100.00;95051.38;5073559;28;20037;-59
2022/12/04 03:34:46;;;;;;;40.77;33.70;;;;;;;-0.35;100.00;95044.56;5074450;28;20052;-59
2022/12/04 03:37:20;;;;;;;35.95;32.13;;;;;;;-0.34;100.00;95056.56;5079690;28;20024;-59
2022/12/04 03:40:02;;;;;;;42.22;33.42;;;;;;;-0.35;100.00;95049.72;5083412;28;20028;-59
2022/12/04 03:42:56;;;;;;;41.10;32.58;;;;;;;-0.36;100.00;95053.25;5086185;28;20043;-61
2022/12/04 03:45:30;;;;;;;37.33;30.77;;;;;;;-0.37;100.00;95046.41;5076851;28;20066;-69
2022/12/04 03:48:01;;;;;;;37.55;32.38;;;;;;;-0.33;100.00;95053.09;5085448;28;20024;-69
2022/12/04 03:50:36;;;;;;;38.30;32.58;;;;;;;-0.28;100.00;95051.97;5076383;28;20070;-69
2022/12/04 03:53:05;;;;;;;37.35;31.17;;;;;;;-0.32;100.00;95049.56;5083395;28;20050;-69
2022/12/04 03:55:38;;;;;;;37.08;30.65;;;;;;;-0.32;100.00;95054.75;5087974;28;20383;-69
2022/12/04 03:58:09;;;;;;;33.67;30.00;;;;;;;-0.30;100.00;95057.22;5077520;28;20028;-69
2022/12/04 04:00:38;;;;;;;34.90;31.13;;;;;;;-0.27;100.00;95061.41;5081708;28;20073;-63
2022/12/04 04:03:15;;;;;;;38.35;32.30;;;;;;;-0.26;100.00;95052.72;5079086;28;20074;-72
2022/12/04 04:05:45;;;;;;;40.15;33.28;;;;;;;-0.26;100.00;95055.31;5079846;28;20085;-60
2022/12/04 04:08:25;;;;;;;42.22;34.67;;;;;;;-0.26;100.00;95057.88;5077447;28;20459;-59
2022/12/04 04:10:55;;;;;;;38.03;33.95;;;;;;;-0.26;100.00;95057.88;5079359;28;20075;-58
2022/12/04 04:24:49;;;;;;;38.80;32.80;;;;;;;-0.33;100.00;95052.25;5080247;28;20055;-63
2022/12/04 04:27:14;;;;;;;38.83;34.17;;;;;;;-0.36;100.00;95045.47;5075926;28;20047;-63
2022/12/04 04:29:42;;;;;;;34.30;30.63;;;;;;;-0.38;100.00;95036.97;5077323;28;20012;-63
2022/12/04 04:32:27;;;;;;;37.80;33.05;;;;;;;-0.42;100.00;95043.25;5075035;28;20082;-63
2022/12/04 04:35:17;;;;;;;35.05;31.05;;;;;;;-0.41;100.00;95037.16;5087955;28;20063;-62
2022/12/04 04:37:51;;;;;;;35.95;32.00;;;;;;;-0.41;100.00;95052.69;5081451;28;20545;-63
2022/12/04 04:40:26;;;;;;;40.30;33.95;;;;;;;-0.40;100.00;95054.34;5084588;28;20012;-68
2022/12/04 04:43:23;;;;;;;44.60;39.33;;;;;;;-0.45;100.00;95058.97;5082440;28;20039;-73
2022/12/04 04:46:01;;;;;;;44.67;35.95;;;;;;;-0.51;100.00;95065.31;5075814;28;20081;-73
2022/12/04 04:48:31;;;;;;;41.97;34.53;;;;;;;-0.54;100.00;95064.69;5086677;28;20028;-73
2022/12/04 04:50:58;;;;;;;44.22;37.15;;;;;;;-0.56;100.00;95069.94;5077368;28;20030;-73
2022/12/04 04:53:34;;;;;;;39.88;34.03;;;;;;;-0.57;100.00;95078.63;5081308;28;20043;-73
2022/12/04 04:56:00;;;;;;;40.28;33.97;;;;;;;-0.61;100.00;95079.72;5078010;28;20110;-73
2022/12/04 04:58:26;;;;;;;45.83;36.50;;;;;;;-0.64;100.00;95082.50;5080337;28;20047;-60
2022/12/04 05:01:00;;;;;;;38.08;32.20;;;;;;;-0.66;100.00;95082.56;5086727;28;20020;-61
2022/12/04 05:03:27;;;;;;;43.50;35.88;;;;;;;-0.64;100.00;95093.66;5089968;28;20028;-68
2022/12/04 05:05:53;;;;;;;38.55;33.53;;;;;;;-0.67;100.00;95085.22;5082896;28;20131;-68
2022/12/04 05:08:18;;;;;;;42.13;33.85;;;;;;;-0.68;100.00;95083.56;5088106;28;20165;-68
2022/12/04 05:10:43;;;;;;;42.67;34.83;;;;;;;-0.67;100.00;95086.06;5085167;28;20112;-68
2022/12/04 05:13:11;;;;;;;46.30;37.90;;;;;;;-0.67;100.00;95093.84;5091423;28;20621;-68
2022/12/04 05:15:36;;;;;;;45.80;36.45;;;;;;;-0.68;100.00;95099.06;5091384;28;20619;-68
2022/12/04 05:18:01;;;;;;;40.28;34.55;;;;;;;-0.68;100.00;95097.34;5088759;28;20038;-60
2022/12/04 05:20:27;;;;;;;41.88;37.03;;;;;;;-0.69;100.00;95093.09;5083561;28;20673;-60
2022/12/04 05:22:52;;;;;;;42.10;36.25;;;;;;;-0.71;100.00;95089.75;5081480;28;20024;-68
2022/12/04 05:25:18;;;;;;;46.92;35.65;;;;;;;-0.73;100.00;95089.84;5084223;28;20518;-69
2022/12/04 05:27:43;;;;;;;42.03;34.20;;;;;;;-0.72;100.00;95088.91;5090154;28;20026;-68
2022/12/04 05:30:10;;;;;;;41.90;35.10;;;;;;;-0.73;100.00;95099.38;5087741;28;20020;-68
2022/12/04 05:32:35;;;;;;;41.63;33.63;;;;;;;-0.74;100.00;95100.28;5087357;28;20099;-68
2022/12/04 05:35:00;;;;;;;40.40;35.28;;;;;;;-0.73;100.00;95096.78;5084726;28;20115;-68
2022/12/04 05:37:26;;;;;;;43.72;35.40;;;;;;;-0.74;100.00;95095.13;5090035;28;20032;-60
2022/12/04 05:39:51;;;;;;;40.40;34.45;;;;;;;-0.74;100.00;95098.50;5078063;28;20025;-59
2022/12/04 05:42:17;;;;;;;40.13;34.70;;;;;;;-0.76;100.00;95094.38;5086840;28;20481;-55
2022/12/04 05:44:42;;;;;;;44.75;34.83;;;;;;;-0.75;100.00;95098.63;5082265;28;20020;-55
2022/12/04 05:47:09;;;;;;;43.35;35.92;;;;;;;-0.73;100.00;95101.94;5084870;28;20086;-56
2022/12/04 05:49:34;;;;;;;43.35;35.35;;;;;;;-0.70;100.00;95111.25;5076025;28;20046;-54
2022/12/04 05:52:00;;;;;;;41.25;35.60;;;;;;;-0.72;100.00;95112.19;5087206;28;20031;-55
2022/12/04 05:54:26;;;;;;;41.40;36.28;;;;;;;-0.73;100.00;95117.47;5077903;28;20062;-55
2022/12/04 05:56:51;;;;;;;41.80;35.42;;;;;;;-0.74;100.00;95131.31;5076229;28;20043;-69
2022/12/04 05:59:17;;;;;;;44.42;35.80;;;;;;;-0.73;100.00;95122.63;5077024;28;20012;-72
2022/12/04 06:01:43;;;;;;;42.65;34.85;;;;;;;-0.70;100.00;95129.34;5088893;28;20497;-73
2022/12/04 06:04:09;;;;;;;44.38;35.72;;;;;;;-0.70;100.00;95134.53;5094851;28;20409;-73
2022/12/04 06:06:35;;;;;;;44.85;37.00;;;;;;;-0.70;100.00;95137.97;5080686;28;20031;-73
2022/12/04 06:09:01;;;;;;;45.15;37.22;;;;;;;-0.66;100.00;95134.28;5084053;28;20063;-73
2022/12/04 06:11:29;;;;;;;48.95;43.50;;;;;;;-0.64;100.00;95141.97;5080802;28;20048;-73
2022/12/04 06:13:55;;;;;;;45.10;38.13;;;;;;;-0.64;100.00;95145.38;5072380;28;20028;-74
2022/12/04 06:16:29;;;;;;;43.83;38.75;;;;;;;-0.60;100.00;95144.25;5057096;28;20394;-60
2022/12/04 06:19:00;;;;;;;47.20;38.78;;;;;;;-0.56;100.00;95144.09;5074065;28;20054;-69
2022/12/04 06:21:29;;;;;;;48.33;39.75;;;;;;;-0.54;100.00;95147.44;5080069;28;20028;-69
2022/12/04 06:23:55;;;;;;;45.78;37.78;;;;;;;-0.53;100.00;95146.53;5073879;28;20394;-68
2022/12/04 06:26:21;;;;;;;48.35;40.63;;;;;;;-0.53;100.00;95141.34;5077594;28;20036;-68
2022/12/04 06:28:46;;;;;;;46.33;38.85;;;;;;;-0.48;100.00;95141.91;5081434;28;20097;-68
2022/12/04 06:31:14;;;;;;;56.15;46.65;;;;;;;-0.42;100.00;95146.72;5088385;28;20032;-68
2022/12/04 06:33:40;;;;;;;54.80;44.92;;;;;;;-0.40;100.00;95137.13;5072095;28;20053;-68
2022/12/04 06:36:09;;;;;;;52.90;41.33;;;;;;;-0.41;100.00;95137.22;5073287;28;20106;-62
2022/12/04 06:38:35;;;;;;;51.80;43.45;;;;;;;-0.41;100.00;95138.03;5078467;28;20538;-59
2022/12/04 06:41:05;;;;;;;53.55;44.35;;;;;;;-0.41;100.00;95132.88;5090321;28;20020;-59
2022/12/04 06:43:31;;;;;;;57.22;48.28;;;;;;;-0.41;100.00;95132.88;5079188;28;20050;-59
2022/12/04 06:46:08;;;;;;;59.67;51.00;;;;;;;-0.39;100.00;95125.84;5071938;28;20032;-59
2022/12/04 06:48:34;;;;;;;59.33;49.65;;;;;;;-0.37;100.00;95124.00;5072685;28;20023;-59
2022/12/04 06:51:30;;;;;;;54.00;46.83;;;;;;;-0.35;100.00;95127.34;5081208;28;20398;-59
2022/12/04 06:53:56;;;;;;;53.45;44.60;;;;;;;-0.32;100.00;95115.97;5065014;28;20078;-62
2022/12/04 06:56:25;;;;;;;49.13;43.40;;;;;;;-0.32;100.00;95128.91;5084950;28;20036;-60
2022/12/04 06:58:53;;;;;;;49.63;43.25;;;;;;;-0.33;100.00;95128.09;5079580;28;20029;-73
2022/12/04 07:01:22;;;;;;;59.28;48.78;;;;;;;-0.32;100.00;95136.69;5087469;28;20024;-72
2022/12/04 07:03:47;;;;;;;55.15;44.92;;;;;;;-0.34;100.00;95133.34;5080681;28;20400;-73
2022/12/04 07:06:14;;;;;;;56.42;45.33;;;;;;;-0.40;100.00;95134.53;5082845;28;20076;-72
2022/12/04 07:08:39;;;;;;;68.00;49.55;;;;;;;-0.44;100.00;95140.81;5073848;28;20030;-72
2022/12/04 07:11:05;;;;;;;53.90;43.30;;;;;;;-0.41;100.00;95140.63;5072519;28;20103;-72
2022/12/04 07:13:31;;;;;;;48.38;41.22;;;;;;;-0.41;100.00;95138.03;5074571;28;20052;-63
2022/12/04 07:15:59;;;;;;;49.78;42.50;;;;;;;-0.43;100.00;95132.13;5082256;28;20454;-60
2022/12/04 07:18:25;;;;;;;44.53;39.03;;;;;;;-0.44;100.00;95139.06;5084962;28;20535;-73
2022/12/04 07:20:50;;;;;;;47.80;40.13;;;;;;;-0.47;100.00;95138.41;5071199;28;20020;-73
2022/12/04 07:23:15;;;;;;;51.92;41.63;;;;;;;-0.46;100.00;95134.91;5070831;28;20399;-73
2022/12/04 07:25:41;;;;;;;52.63;44.10;;;;;;;-0.37;100.00;95128.38;5079866;28;20020;-73
2022/12/04 07:28:06;;;;;;;58.50;43.92;;;;;;;-0.27;100.00;95129.47;5075026;28;20050;-72
2022/12/04 07:30:31;;;;;;;50.45;41.88;;;;;;;-0.34;100.00;95123.00;5071157;28;20104;-73
2022/12/04 07:32:57;;;;;;;54.70;45.63;;;;;;;-0.36;100.00;95124.84;5074592;28;20051;-60
2022/12/04 07:35:22;;;;;;;55.28;46.92;;;;;;;-0.38;100.00;95127.50;5071018;28;20509;-68
2022/12/04 07:37:48;;;;;;;50.47;43.60;;;;;;;-0.36;100.00;95140.38;5085932;28;20024;-65
2022/12/04 07:40:13;;;;;;;53.75;43.78;;;;;;;-0.30;100.00;95138.28;5090552;28;20012;-66
2022/12/04 07:42:39;;;;;;;64.13;52.75;;;;;;;-0.15;100.00;95133.09;5083308;28;20051;-67
2022/12/04 07:45:04;;;;;;;61.63;51.45;;;;;;;-0.01;100.00;95132.28;5084781;28;20040;-65
2022/12/04 07:47:30;;;;;;;60.20;50.90;;;;;;;0.08;100.00;95129.16;5096264;28;20482;-67
2022/12/04 07:49:55;;;;;;;61.70;51.15;;;;;;;0.19;100.00;95125.09;5090725;28;20050;-66
2022/12/04 07:52:20;;;;;;;54.08;47.67;;;;;;;0.28;100.00;95133.13;5090066;28;20016;-60
2022/12/04 07:54:46;;;;;;;53.33;45.42;;;;;;;0.37;100.00;95128.34;5089803;28;20020;-60
2022/12/04 07:57:11;;;;;;;52.80;44.33;;;;;;;0.49;100.00;95131.94;5089810;28;20023;-60
2022/12/04 07:59:37;;;;;;;49.55;42.17;;;;;;;0.60;100.00;95137.28;5089982;28;20028;-60
2022/12/04 08:02:04;;;;;;;47.97;39.90;;;;;;;0.68;100.00;95144.56;5087700;28;20105;-60
2022/12/04 08:04:29;;;;;;;45.38;40.08;;;;;;;0.76;100.00;95134.56;5070472;28;20028;-60
2022/12/04 08:06:55;;;;;;;46.42;39.38;;;;;;;0.87;100.00;95141.66;5073636;28;20027;-59
2022/12/04 08:09:20;;;;;;;45.10;39.00;;;;;;;0.98;100.00;95126.28;5101672;28;20028;-59
2022/12/04 08:11:45;;;;;;;45.58;39.67;;;;;;;1.10;100.00;95126.41;5093878;28;20016;-70
2022/12/04 08:14:11;;;;;;;45.72;39.67;;;;;;;1.09;100.00;95124.75;5090111;28;20506;-65
2022/12/04 08:16:36;;;;;;;47.30;37.42;;;;;;;1.07;100.00;95124.88;5089524;28;20407;-64
2022/12/04 08:19:02;;;;;;;46.60;38.53;;;;;;;1.05;100.00;95131.91;5082159;28;20034;-64
2022/12/04 08:21:29;;;;;;;61.53;49.88;;;;;;;1.03;100.00;95146.75;5074605;28;20036;-65
2022/12/04 08:23:57;;;;;;;48.70;40.05;;;;;;;1.00;100.00;95150.34;5069467;28;20040;-65
2022/12/04 08:26:24;;;;;;;45.05;40.28;;;;;;;0.92;100.00;95143.97;5085965;28;20541;-66
2022/12/04 08:28:53;;;;;;;47.53;40.53;;;;;;;0.94;100.00;95148.16;5089172;28;20053;-65
2022/12/04 08:31:21;;;;;;;53.33;43.05;;;;;;;1.03;100.00;95151.91;5086903;28;20024;-59
2022/12/04 08:33:48;;;;;;;53.97;46.17;;;;;;;1.25;100.00;95155.75;5086616;28;20074;-59
2022/12/04 08:36:16;;;;;;;57.42;46.75;;;;;;;1.44;100.00;95157.97;5084898;28;20028;-58
2022/12/04 08:38:41;;;;;;;54.38;44.70;;;;;;;1.34;100.00;95165.53;5081760;28;20086;-58
2022/12/04 08:41:10;;;;;;;56.67;48.47;;;;;;;1.43;100.00;95170.09;5079992;28;20013;-59
2022/12/04 08:43:35;;;;;;;55.17;47.85;;;;;;;1.55;100.00;95172.84;5076752;28;20023;-60
2022/12/04 08:46:04;;;;;;;52.45;43.40;;;;;;;1.62;100.00;95176.69;5073806;28;20020;-59
2022/12/04 08:48:30;;;;;;;44.38;39.50;;;;;;;1.69;100.00;95183.19;5088432;28;20024;-60
2022/12/04 08:50:55;;;;;;;51.67;42.70;;;;;;;1.74;100.00;95190.66;5080810;28;20501;-61
2022/12/04 08:53:21;;;;;;;46.83;40.67;;;;;;;1.71;100.00;95190.84;5072240;28;20408;-67
2022/12/04 08:55:47;;;;;;;49.78;42.00;;;;;;;1.67;100.00;95192.00;5071128;28;20070;-67
2022/12/04 08:58:12;;;;;;;49.03;42.33;;;;;;;1.65;100.00;95199.84;5079052;28;20115;-67
2022/12/04 09:00:38;;;;;;;48.10;40.72;;;;;;;1.68;100.00;95191.91;5074231;28;20028;-67
2022/12/04 09:03:04;;;;;;;49.88;40.65;;;;;;;1.71;100.00;95189.09;5089476;28;20031;-67
2022/12/04 09:05:30;;;;;;;49.30;43.45;;;;;;;1.86;100.00;95176.88;5088716;28;20129;-68
2022/12/04 09:07:55;;;;;;;47.60;42.42;;;;;;;1.82;100.00;95174.56;5084054;28;20146;-67
2022/12/04 09:10:22;;;;;;;50.75;43.88;;;;;;;1.82;100.00;95166.78;5085317;28;20023;-60
2022/12/04 09:12:47;;;;;;;52.53;44.97;;;;;;;1.85;100.00;95156.19;5087342;28;20090;-60
2022/12/04 09:15:12;;;;;;;51.67;46.13;;;;;;;1.89;100.00;95149.88;5077499;28;20078;-61
2022/12/04 09:17:38;;;;;;;66.88;57.72;;;;;;;2.02;100.00;95149.06;5080251;28;20020;-60
2022/12/04 09:20:04;;;;;;;54.40;47.55;;;;;;;2.09;100.00;95139.91;5080397;28;20927;-61
2022/12/04 09:22:30;;;;;;;56.30;46.42;;;;;;;2.28;100.00;95145.53;5080012;28;20031;-60
2022/12/04 09:24:55;;;;;;;56.28;50.15;;;;;;;2.32;100.00;95150.50;5079888;28;20046;-61
2022/12/04 09:27:21;;;;;;;57.00;49.63;;;;;;;2.33;100.00;95160.00;5074450;28;20078;-60
2022/12/04 09:29:46;;;;;;;54.92;48.13;;;;;;;2.29;100.00;95154.97;5077407;28;20035;-68
2022/12/04 09:32:12;;;;;;;49.65;43.97;;;;;;;2.56;100.00;95150.59;5073025;28;20107;-62
2022/12/04 09:34:37;;;;;;;50.05;44.83;;;;;;;2.52;100.00;95162.97;5076980;28;20068;-62
2022/12/04 09:37:02;;;;;;;52.22;43.72;;;;;;;2.46;100.00;95178.16;5079995;28;20056;-62
2022/12/04 09:39:28;;;;;;;50.75;44.13;;;;;;;2.60;100.00;95164.22;5088392;28;20028;-62
2022/12/04 09:42:21;;;;;;;48.80;43.20;;;;;;;2.72;100.00;95176.34;5091160;28;20028;-62
2022/12/04 09:45:02;;;;;;;47.17;41.40;;;;;;;2.90;100.00;95178.63;5092401;28;20019;-62
2022/12/04 09:47:34;;;;;;;42.53;38.03;;;;;;;3.25;100.00;95164.91;5092620;28;20024;-59
2022/12/04 09:50:11;;;;;;;45.05;40.35;;;;;;;3.47;100.00;95158.97;5088984;28;20020;-67
2022/12/04 09:52:45;;;;;;;42.58;37.72;;;;;;;3.63;100.00;95153.47;5087602;28;20435;-68
2022/12/04 09:55:36;;;;;;;41.10;37.00;;;;;;;3.45;100.00;95158.25;5088235;28;20371;-68
2022/12/04 09:58:04;;;;;;;40.30;36.00;;;;;;;3.27;100.00;95150.00;5080086;28;20051;-68
2022/12/04 10:00:32;;;;;;;39.65;35.45;;;;;;;3.27;100.00;95145.63;5088673;28;20028;-68
2022/12/04 10:03:04;;;;;;;42.58;38.10;;;;;;;3.48;100.00;95154.59;5082788;28;20078;-68
2022/12/04 10:06:00;;;;;;;39.90;35.80;;;;;;;3.91;100.00;95154.03;5076448;28;20385;-68
2022/12/04 10:08:28;;;;;;;39.53;35.25;;;;;;;4.30;100.00;95141.53;5091522;28;20566;-61
2022/12/04 10:11:19;;;;;;;40.17;35.88;;;;;;;4.43;100.00;95133.66;5092361;28;20024;-55
2022/12/04 10:14:13;;;;;;;39.38;32.97;;;;;;;4.81;99.17;95143.81;5091610;28;20082;-57
2022/12/04 10:17:24;;;;;;;33.63;30.02;;;;;;;5.01;94.86;95135.25;5092328;28;20468;-57
2022/12/04 10:20:10;;;;;;;34.40;30.75;;;;;;;5.21;95.99;95139.84;5091266;28;20034;-57
2022/12/04 10:22:55;;;;;;;33.92;30.58;;;;;;;5.01;97.02;95139.66;5091172;28;20592;-58
2022/12/04 10:25:22;;;;;;;33.92;30.38;;;;;;;4.72;96.47;95148.81;5079221;28;20406;-56
2022/12/04 10:27:52;;;;;;;34.58;31.00;;;;;;;4.61;97.28;95147.97;5089145;28;20131;-62
2022/12/04 10:30:25;;;;;;;33.95;30.45;;;;;;;4.67;96.71;95135.31;5090770;28;20016;-71
2022/12/04 10:33:10;;;;;;;34.42;30.90;;;;;;;4.69;95.00;95135.16;5089825;28;20103;-71
2022/12/04 10:35:36;;;;;;;34.93;31.43;;;;;;;4.93;96.45;95131.59;5091199;28;20032;-71
2022/12/04 10:38:05;;;;;;;33.58;30.10;;;;;;;5.26;94.93;95132.47;5088324;28;20296;-71
2022/12/04 10:40:46;;;;;;;35.67;32.03;;;;;;;5.43;94.15;95133.72;5074365;28;20079;-71
2022/12/04 10:43:27;;;;;;;34.47;30.98;;;;;;;5.20;92.28;95109.50;5074403;28;20031;-71
2022/12/04 10:45:52;;;;;;;37.47;33.50;;;;;;;5.33;94.34;95112.75;5076591;28;20043;-61
2022/12/04 10:48:23;;;;;;;37.35;33.17;;;;;;;5.29;92.30;95106.94;5073727;28;20494;-61
2022/12/04 10:50:48;;;;;;;35.10;31.65;;;;;;;5.25;92.26;95102.94;5086915;28;20028;-61
2022/12/04 10:53:15;;;;;;;36.13;32.38;;;;;;;4.91;92.56;95094.34;5073391;28;20021;-61
2022/12/04 10:55:40;;;;;;;36.72;33.08;;;;;;;5.16;93.77;95106.28;5076253;28;20008;-61
2022/12/04 10:58:19;;;;;;;34.45;30.98;;;;;;;5.08;93.04;95093.84;5074120;28;20028;-61
2022/12/04 11:00:59;;;;;;;34.65;31.15;;;;;;;5.15;92.63;95112.47;5090481;28;20012;-61
2022/12/04 11:03:28;;;;;;;33.60;29.95;;;;;;;4.99;92.49;95115.47;5077878;28;20032;-61
2022/12/04 11:05:57;;;;;;;35.00;30.92;;;;;;;5.49;91.18;95104.50;5071687;28;20031;-62
2022/12/04 11:08:27;;;;;;;36.50;31.27;;;;;;;5.41;92.11;95092.06;5072593;28;20050;-62
2022/12/04 11:11:02;;;;;;;34.38;30.88;;;;;;;5.75;91.05;95091.13;5090737;28;20016;-62
2022/12/04 11:13:28;;;;;;;35.53;31.75;;;;;;;5.41;91.01;95089.47;5076433;28;20023;-62
2022/12/04 11:15:55;;;;;;;34.58;31.00;;;;;;;5.08;92.55;95100.84;5072531;28;20100;-63
2022/12/04 11:18:23;;;;;;;34.38;30.73;;;;;;;4.81;92.29;95092.50;5087597;28;20012;-63
2022/12/04 11:20:58;;;;;;;34.20;30.55;;;;;;;4.69;93.48;95096.91;5081331;28;20048;-63
2022/12/04 11:23:25;;;;;;;33.03;29.60;;;;;;;4.49;93.62;95102.84;5073068;28;20039;-60
2022/12/04 11:25:54;;;;;;;35.20;31.52;;;;;;;4.46;93.66;95095.25;5055472;28;20036;-60
2022/12/04 11:28:23;;;;;;;39.75;32.88;;;;;;;4.28;96.25;95091.31;5085616;28;20486;-56
2022/12/04 11:30:55;;;;;;;35.65;31.83;;;;;;;4.41;95.17;95091.19;5071490;28;20082;-57
2022/12/04 11:33:45;;;;;;;40.30;36.10;;;;;;;4.51;93.68;95088.72;5089972;28;20040;-53
2022/12/04 11:36:33;;;;;;;39.03;34.72;;;;;;;4.14;95.97;95078.53;5090522;28;20169;-55